Time;durP1;ratioP1;P1;durP2;ratioP2;P2;SDS_P1;SDS_P2;PMS_P1;PMS_P2;Temp;Humidity;BMP_temperature;BMP_pressure;BME280_temperature;BME280_humidity;BME280_pressure;Samples;Min_cycle;Max_cycle;Signal;HPM_P1;HPM_P2
2023/09/13 04:07:56;;;;;;;0.30;0.30;;;19.10;99.90;;;;;;4957135;28;20523;-62
2023/09/13 04:10:22;;;;;;;0.30;0.23;;;19.10;99.90;;;;;;4957346;29;20495;-62
2023/09/13 04:12:48;;;;;;;0.40;0.40;;;19.10;99.90;;;;;;4957483;29;20463;-63
2023/09/13 04:15:14;;;;;;;0.30;0.30;;;19.00;99.90;;;;;;4932546;29;20679;-63
2023/09/13 04:17:40;;;;;;;0.30;0.30;;;19.00;99.90;;;;;;4937569;29;20401;-62
2023/09/13 04:20:11;;;;;;;0.30;0.30;;;19.00;99.90;;;;;;4937896;29;20222;-63
2023/09/13 04:22:37;;;;;;;0.30;0.20;;;19.10;99.90;;;;;;4937835;29;20185;-62
2023/09/13 04:25:06;;;;;;;0.30;0.30;;;19.00;99.90;;;;;;4937430;29;20429;-63
2023/09/13 04:27:32;;;;;;;0.50;0.50;;;19.10;99.90;;;;;;4937925;29;20260;-64
2023/09/13 04:29:57;;;;;;;0.30;0.20;;;19.10;99.90;;;;;;4937874;29;20893;-62
2023/09/13 04:32:26;;;;;;;0.30;0.20;;;19.20;99.90;;;;;;4937682;29;20481;-62
2023/09/13 04:34:52;;;;;;;0.30;0.30;;;19.20;99.90;;;;;;4936609;29;20552;-63
2023/09/13 04:37:18;;;;;;;0.30;0.30;;;19.10;99.90;;;;;;4937583;29;20440;-62
2023/09/13 04:39:43;;;;;;;0.30;0.30;;;19.10;99.90;;;;;;4937652;29;20405;-62
2023/09/13 04:42:10;;;;;;;0.30;0.30;;;19.10;99.90;;;;;;4937628;29;20184;-63
2023/09/13 04:44:35;;;;;;;0.30;0.30;;;19.10;99.90;;;;;;4937510;29;20271;-63
2023/09/13 04:47:01;;;;;;;0.30;0.20;;;19.00;99.90;;;;;;4937383;29;20496;-62
2023/09/13 04:49:26;;;;;;;0.30;0.30;;;19.00;99.90;;;;;;4937671;29;20173;-62
2023/09/13 04:51:53;;;;;;;0.30;0.20;;;19.10;99.90;;;;;;4937286;29;20215;-62
2023/09/13 04:54:22;;;;;;;0.30;0.30;;;19.20;99.90;;;;;;4937235;29;20170;-62
2023/09/13 04:56:50;;;;;;;0.30;0.30;;;19.20;99.90;;;;;;4937290;29;20902;-63
2023/09/13 04:59:16;;;;;;;0.60;0.60;;;19.30;99.90;;;;;;4936854;29;20413;-63
2023/09/13 05:01:42;;;;;;;0.30;0.20;;;19.40;99.90;;;;;;4937084;29;20912;-61
2023/09/13 05:04:08;;;;;;;0.30;0.30;;;19.40;99.90;;;;;;4936999;29;20417;-61
2023/09/13 05:06:33;;;;;;;0.30;0.20;;;19.50;99.90;;;;;;4919986;29;20213;-62
2023/09/13 05:08:59;;;;;;;0.30;0.30;;;19.50;99.90;;;;;;4936970;29;20201;-60
2023/09/13 05:11:25;;;;;;;0.30;0.20;;;19.50;99.90;;;;;;4936791;29;20220;-61
2023/09/13 05:14:07;;;;;;;0.50;0.50;;;19.50;99.90;;;;;;4936580;29;20239;-61
2023/09/13 05:16:32;;;;;;;0.30;0.30;;;19.50;99.90;;;;;;4935540;29;20683;-60
2023/09/13 05:18:58;;;;;;;0.40;0.40;;;19.50;99.90;;;;;;4936940;29;20461;-62
2023/09/13 05:21:23;;;;;;;0.30;0.30;;;19.50;99.90;;;;;;4936847;29;20261;-60
2023/09/13 05:23:49;;;;;;;0.30;0.20;;;19.60;99.90;;;;;;4936524;29;20174;-59
2023/09/13 05:26:15;;;;;;;0.30;0.20;;;19.60;99.90;;;;;;4936714;29;20193;-60
2023/09/13 05:28:40;;;;;;;0.30;0.20;;;19.70;99.90;;;;;;4935929;29;20181;-65
2023/09/13 05:31:06;;;;;;;0.30;0.30;;;19.70;99.90;;;;;;4932257;29;20189;-62
2023/09/13 05:33:33;;;;;;;0.30;0.30;;;19.70;99.90;;;;;;4936251;29;20188;-60
2023/09/13 05:35:59;;;;;;;0.30;0.20;;;19.70;99.90;;;;;;4935953;29;20799;-62
2023/09/13 05:38:25;;;;;;;0.30;0.20;;;19.80;99.90;;;;;;4936647;29;20409;-63
2023/09/13 05:40:51;;;;;;;0.40;0.40;;;19.90;99.90;;;;;;4936488;29;20410;-61
2023/09/13 05:43:16;;;;;;;0.30;0.30;;;19.90;99.90;;;;;;4936417;29;20222;-58
2023/09/13 05:45:42;;;;;;;0.30;0.30;;;20.00;99.90;;;;;;4935776;29;20208;-60
2023/09/13 05:48:07;;;;;;;0.30;0.20;;;20.00;99.90;;;;;;4936276;29;20241;-59
2023/09/13 05:50:33;;;;;;;0.30;0.30;;;20.00;99.90;;;;;;4936584;29;20209;-57
2023/09/13 05:52:58;;;;;;;0.30;0.30;;;20.10;99.90;;;;;;4936453;29;20193;-61
2023/09/13 05:55:24;;;;;;;0.30;0.30;;;20.00;99.90;;;;;;4935368;29;20201;-61
2023/09/13 05:57:52;;;;;;;0.30;0.30;;;20.00;99.90;;;;;;4936174;29;20184;-61
2023/09/13 06:00:21;;;;;;;0.30;0.30;;;20.00;99.90;;;;;;4935825;29;20209;-61
2023/09/13 06:02:47;;;;;;;0.30;0.20;;;20.00;99.90;;;;;;4935493;29;20430;-61
2023/09/13 06:05:12;;;;;;;0.30;0.20;;;20.00;99.90;;;;;;4935659;29;20436;-61
2023/09/13 06:07:38;;;;;;;0.30;0.20;;;20.10;99.90;;;;;;4936013;29;20189;-61
2023/09/13 06:10:04;;;;;;;0.47;0.47;;;20.20;99.90;;;;;;4935938;29;20277;-61
2023/09/13 06:12:31;;;;;;;0.30;0.30;;;20.20;99.90;;;;;;4918931;29;20664;-61
2023/09/13 06:14:57;;;;;;;0.30;0.20;;;20.30;99.90;;;;;;4935715;29;20493;-61
2023/09/13 06:17:23;;;;;;;0.30;0.20;;;20.30;99.90;;;;;;4935862;29;20488;-62
2023/09/13 06:19:50;;;;;;;0.30;0.20;;;20.40;99.90;;;;;;4935857;29;20406;-61
2023/09/13 06:22:17;;;;;;;0.30;0.20;;;20.40;99.90;;;;;;4935922;29;20473;-61
2023/09/13 06:24:42;;;;;;;0.30;0.30;;;20.40;99.90;;;;;;4935703;29;20437;-61
2023/09/13 06:27:08;;;;;;;0.30;0.27;;;20.40;99.90;;;;;;4935797;29;20417;-61
2023/09/13 06:29:34;;;;;;;0.40;0.40;;;20.40;99.90;;;;;;4935982;29;20173;-60
2023/09/13 06:31:59;;;;;;;0.30;0.30;;;20.30;99.90;;;;;;4935863;29;20201;-61
2023/09/13 06:34:25;;;;;;;0.30;0.30;;;20.30;99.90;;;;;;4935635;29;20237;-61
2023/09/13 06:36:50;;;;;;;0.30;0.30;;;20.30;99.90;;;;;;4936077;29;20520;-61
2023/09/13 06:39:18;;;;;;;0.30;0.20;;;20.30;99.90;;;;;;4936919;29;20178;-59
2023/09/13 06:41:43;;;;;;;0.30;0.30;;;20.20;99.90;;;;;;4940101;29;20173;-61
2023/09/13 06:44:09;;;;;;;0.30;0.20;;;20.20;99.90;;;;;;4939378;29;20525;-59
2023/09/13 06:46:38;;;;;;;0.30;0.20;;;20.20;99.90;;;;;;4939473;29;20189;-58
2023/09/13 06:49:04;;;;;;;0.30;0.20;;;20.30;99.90;;;;;;4939413;29;20285;-61
2023/09/13 06:51:30;;;;;;;0.30;0.20;;;20.30;99.90;;;;;;4939477;29;20453;-62
2023/09/13 06:53:55;;;;;;;0.30;0.20;;;20.30;99.90;;;;;;4939100;29;20484;-62
2023/09/13 06:56:21;;;;;;;0.30;0.30;;;20.30;99.90;;;;;;4939443;29;20408;-61
2023/09/13 06:58:47;;;;;;;0.30;0.30;;;20.30;99.90;;;;;;4939769;29;20425;-60
2023/09/13 07:01:13;;;;;;;0.30;0.30;;;20.40;99.90;;;;;;4939292;29;20628;-62
2023/09/13 07:03:39;;;;;;;0.30;0.20;;;20.40;99.90;;;;;;4939138;29;20178;-61
2023/09/13 07:06:05;;;;;;;0.30;0.20;;;20.50;99.90;;;;;;4938780;29;20468;-61
2023/09/13 07:08:31;;;;;;;0.30;0.20;;;20.50;99.90;;;;;;4939353;29;20424;-60
2023/09/13 07:10:56;;;;;;;0.30;0.30;;;20.60;99.90;;;;;;4939343;29;20446;-61
2023/09/13 07:13:22;;;;;;;0.30;0.20;;;20.70;99.90;;;;;;4939148;29;20664;-60
2023/09/13 07:15:48;;;;;;;0.30;0.30;;;20.90;99.90;;;;;;4938432;29;20204;-61
2023/09/13 07:18:14;;;;;;;0.30;0.30;;;21.00;99.90;;;;;;4938474;29;20166;-60
2023/09/13 07:20:40;;;;;;;0.30;0.20;;;21.10;99.90;;;;;;4938345;29;20405;-59
2023/09/13 07:23:05;;;;;;;0.30;0.30;;;21.10;99.90;;;;;;4938383;29;20420;-61
2023/09/13 07:25:31;;;;;;;0.30;0.20;;;21.10;99.90;;;;;;4938111;29;20205;-60
2023/09/13 07:27:57;;;;;;;0.30;0.20;;;21.10;99.90;;;;;;4937764;29;20224;-57
2023/09/13 07:30:23;;;;;;;0.50;0.50;;;21.20;99.90;;;;;;4936716;29;20272;-59
2023/09/13 07:32:49;;;;;;;0.30;0.20;;;21.20;99.90;;;;;;4938026;29;21010;-58
2023/09/13 07:35:15;;;;;;;0.40;0.40;;;21.20;99.90;;;;;;4937661;29;20210;-57
2023/09/13 07:37:40;;;;;;;0.50;0.30;;;21.20;99.90;;;;;;4935970;29;20422;-59
2023/09/13 07:40:07;;;;;;;0.70;0.40;;;21.40;99.90;;;;;;4938532;29;20626;-59
2023/09/13 07:42:32;;;;;;;0.30;0.20;;;21.40;99.90;;;;;;4938682;29;20183;-58
2023/09/13 07:44:59;;;;;;;0.30;0.20;;;21.50;99.90;;;;;;4938041;29;20412;-58
2023/09/13 07:47:26;;;;;;;0.30;0.20;;;21.50;99.90;;;;;;4938289;29;20593;-62
2023/09/13 07:49:51;;;;;;;0.30;0.27;;;21.50;99.90;;;;;;4938119;29;20418;-58
2023/09/13 07:52:17;;;;;;;0.30;0.20;;;21.50;99.90;;;;;;4937449;29;20465;-60
2023/09/13 07:54:43;;;;;;;0.40;0.40;;;21.50;99.90;;;;;;4937777;29;20189;-59
2023/09/13 07:57:08;;;;;;;0.30;0.20;;;21.50;99.90;;;;;;4938253;29;20644;-59
2023/09/13 07:59:34;;;;;;;0.30;0.20;;;21.60;99.90;;;;;;4938365;29;20188;-57
2023/09/13 08:02:00;;;;;;;0.30;0.20;;;21.60;99.90;;;;;;4938152;29;20570;-58
2023/09/13 08:04:25;;;;;;;0.30;0.20;;;21.60;99.90;;;;;;4937480;29;20181;-59
2023/09/13 08:06:51;;;;;;;0.30;0.30;;;21.60;99.90;;;;;;4937398;29;20286;-59
2023/09/13 08:09:16;;;;;;;0.30;0.30;;;21.70;99.90;;;;;;4919129;29;20314;-59
2023/09/13 08:11:45;;;;;;;0.30;0.20;;;21.60;99.90;;;;;;4919237;29;20294;-59
2023/09/13 08:14:10;;;;;;;0.30;0.20;;;21.70;99.90;;;;;;4918862;29;20206;-59
2023/09/13 08:16:36;;;;;;;0.30;0.30;;;21.80;99.90;;;;;;4919096;29;20442;-59
2023/09/13 08:19:02;;;;;;;0.50;0.40;;;21.80;99.90;;;;;;4918848;29;20181;-60
2023/09/13 08:21:27;;;;;;;0.30;0.30;;;21.90;99.90;;;;;;4918828;29;20424;-59
2023/09/13 08:23:53;;;;;;;0.30;0.20;;;22.00;99.90;;;;;;4918604;29;20257;-59
2023/09/13 08:26:19;;;;;;;0.40;0.40;;;22.20;99.90;;;;;;4918770;29;20202;-59
2023/09/13 08:28:45;;;;;;;0.30;0.20;;;22.20;99.90;;;;;;4918919;29;20181;-58
2023/09/13 08:31:11;;;;;;;0.30;0.20;;;22.30;99.90;;;;;;4918153;29;20273;-57
2023/09/13 08:33:36;;;;;;;0.30;0.20;;;22.30;99.90;;;;;;4918749;29;20548;-59
2023/09/13 08:36:02;;;;;;;0.30;0.20;;;22.40;99.90;;;;;;4901345;29;20838;-59
2023/09/13 08:38:28;;;;;;;0.30;0.30;;;22.30;99.90;;;;;;4918617;29;20185;-58
2023/09/13 08:40:54;;;;;;;0.30;0.20;;;22.40;99.90;;;;;;4901650;29;20415;-59
2023/09/13 08:43:21;;;;;;;0.30;0.20;;;22.40;99.90;;;;;;4918496;29;20233;-59
2023/09/13 08:45:48;;;;;;;0.30;0.23;;;22.40;99.90;;;;;;4917959;29;20445;-59
2023/09/13 08:48:18;;;;;;;0.30;0.30;;;22.30;99.90;;;;;;4918822;29;20421;-59
2023/09/13 08:50:46;;;;;;;0.30;0.30;;;22.20;99.90;;;;;;4918466;29;20425;-59
2023/09/13 08:53:13;;;;;;;0.30;0.20;;;22.10;99.90;;;;;;4918464;29;20463;-59
2023/09/13 08:55:44;;;;;;;0.30;0.20;;;22.00;99.90;;;;;;4917884;29;20426;-61
2023/09/13 08:58:13;;;;;;;0.30;0.20;;;22.00;99.90;;;;;;4918065;29;20414;-60
2023/09/13 09:00:41;;;;;;;0.30;0.20;;;22.00;99.90;;;;;;4918175;29;20416;-60
2023/09/13 09:03:10;;;;;;;0.30;0.20;;;22.00;99.90;;;;;;4917953;29;20452;-60
2023/09/13 09:05:37;;;;;;;0.30;0.20;;;22.00;99.90;;;;;;4917843;29;20850;-61
2023/09/13 09:08:04;;;;;;;0.30;0.20;;;22.00;99.90;;;;;;4918355;29;20429;-60
2023/09/13 09:10:31;;;;;;;0.30;0.20;;;22.00;99.90;;;;;;4918182;29;20434;-60
2023/09/13 09:12:58;;;;;;;0.30;0.30;;;22.00;99.90;;;;;;4917993;29;20506;-60
2023/09/13 09:15:24;;;;;;;0.30;0.23;;;22.00;99.90;;;;;;4917632;29;20415;-60
2023/09/13 09:17:52;;;;;;;0.40;0.30;;;21.90;99.90;;;;;;4918334;29;20411;-60
2023/09/13 09:20:20;;;;;;;1.33;0.57;;;21.90;99.90;;;;;;4917933;29;20506;-60
2023/09/13 09:22:45;;;;;;;0.50;0.50;;;22.00;99.90;;;;;;4917920;29;20409;-60
2023/09/13 09:25:13;;;;;;;0.30;0.30;;;22.00;99.90;;;;;;4916171;29;20432;-60
2023/09/13 09:27:40;;;;;;;0.30;0.20;;;21.90;99.90;;;;;;4917964;29;20187;-60
2023/09/13 09:30:14;;;;;;;0.30;0.30;;;21.90;99.90;;;;;;4916994;29;20454;-61
2023/09/13 09:32:40;;;;;;;0.53;0.53;;;21.90;99.90;;;;;;4917400;29;20489;-61
2023/09/13 09:35:07;;;;;;;0.40;0.40;;;21.80;99.90;;;;;;4917275;29;20435;-61
2023/09/13 09:37:34;;;;;;;0.30;0.30;;;21.80;99.90;;;;;;4917719;29;20505;-60
2023/09/13 09:40:01;;;;;;;0.30;0.20;;;21.70;99.90;;;;;;4923065;29;20494;-60
2023/09/13 09:42:29;;;;;;;0.30;0.20;;;21.70;99.90;;;;;;4936990;29;20410;-61
2023/09/13 09:44:55;;;;;;;0.30;0.30;;;21.80;99.90;;;;;;4936148;29;20831;-61
2023/09/13 09:47:21;;;;;;;0.30;0.20;;;21.80;99.90;;;;;;4936510;29;20452;-61
2023/09/13 09:49:47;;;;;;;0.30;0.20;;;21.90;99.90;;;;;;4936509;29;20427;-60
2023/09/13 09:52:15;;;;;;;0.30;0.20;;;22.00;99.90;;;;;;4936923;29;20470;-61
2023/09/13 09:54:46;;;;;;;0.30;0.20;;;22.10;99.90;;;;;;4935983;29;20439;-61
2023/09/13 09:57:26;;;;;;;0.40;0.40;;;22.20;99.90;;;;;;4936161;29;20380;-61
2023/09/13 09:59:51;;;;;;;0.30;0.20;;;22.30;99.90;;;;;;4936503;29;20428;-61
2023/09/13 10:02:24;;;;;;;0.30;0.20;;;22.50;99.90;;;;;;4936353;29;20483;-61
2023/09/13 10:04:51;;;;;;;0.30;0.30;;;22.70;99.90;;;;;;4935766;29;20208;-61
2023/09/13 10:07:16;;;;;;;0.30;0.20;;;22.80;99.90;;;;;;4935902;29;20451;-61
2023/09/13 10:09:44;;;;;;;0.30;0.30;;;22.90;99.90;;;;;;4936556;29;20388;-61
2023/09/13 10:12:10;;;;;;;0.30;0.20;;;23.00;99.90;;;;;;4936111;29;20201;-61
2023/09/13 10:14:39;;;;;;;0.30;0.30;;;23.10;99.90;;;;;;4935397;29;20508;-61
2023/09/13 10:17:06;;;;;;;0.30;0.20;;;23.10;99.90;;;;;;4936179;29;20417;-60
2023/09/13 10:19:33;;;;;;;0.30;0.30;;;23.00;99.90;;;;;;4936221;29;20759;-61
2023/09/13 10:21:59;;;;;;;0.40;0.40;;;22.90;99.90;;;;;;4936124;29;20784;-60
2023/09/13 10:24:32;;;;;;;0.30;0.20;;;22.70;99.90;;;;;;4935630;29;20445;-60
2023/09/13 10:26:58;;;;;;;0.30;0.20;;;22.60;99.90;;;;;;4936210;29;20409;-60
2023/09/13 10:29:38;;;;;;;0.30;0.30;;;22.40;99.90;;;;;;4935949;29;20416;-60
2023/09/13 10:32:07;;;;;;;0.30;0.23;;;22.40;99.90;;;;;;4935581;29;20468;-61
2023/09/13 10:34:52;;;;;;;0.30;0.30;;;22.30;99.90;;;;;;4918622;29;20501;-60
2023/09/13 10:37:29;;;;;;;0.30;0.20;;;22.20;99.90;;;;;;4935735;29;20416;-61
2023/09/13 10:40:21;;;;;;;0.30;0.20;;;22.10;99.90;;;;;;4935959;29;20932;-59
2023/09/13 10:42:48;;;;;;;0.30;0.20;;;22.10;99.90;;;;;;4935885;29;20419;-60
2023/09/13 10:45:18;;;;;;;0.67;0.47;;;22.20;99.90;;;;;;4935382;29;20433;-60
2023/09/13 10:47:45;;;;;;;0.30;0.20;;;22.30;99.90;;;;;;4935741;29;20417;-60
2023/09/13 10:50:10;;;;;;;0.30;0.30;;;22.40;99.90;;;;;;4935229;29;20915;-60
2023/09/13 10:52:37;;;;;;;0.30;0.20;;;22.60;99.90;;;;;;4935215;29;20623;-60
2023/09/13 10:55:05;;;;;;;0.40;0.30;;;22.70;99.90;;;;;;4935390;29;20196;-61
2023/09/13 10:57:32;;;;;;;0.30;0.20;;;22.80;99.90;;;;;;4935560;29;20421;-61
2023/09/13 10:59:59;;;;;;;0.30;0.30;;;23.00;99.90;;;;;;4935742;29;20441;-61
2023/09/13 11:02:25;;;;;;;0.30;0.30;;;23.10;99.90;;;;;;4935558;29;20424;-61
2023/09/13 11:04:51;;;;;;;0.30;0.20;;;23.10;99.90;;;;;;4934988;29;20536;-60
2023/09/13 11:07:17;;;;;;;0.30;0.20;;;23.20;99.90;;;;;;4934690;29;20960;-61
2023/09/13 11:09:45;;;;;;;0.30;0.27;;;23.20;99.90;;;;;;4934882;29;20177;-60
2023/09/13 11:12:12;;;;;;;0.30;0.20;;;23.20;99.90;;;;;;4924373;29;20352;-61
2023/09/13 11:14:46;;;;;;;0.30;0.30;;;23.20;99.90;;;;;;4934612;29;20742;-61
2023/09/13 11:17:37;;;;;;;1.07;1.07;;;23.20;99.90;;;;;;4916580;29;20468;-61
2023/09/13 11:20:21;;;;;;;0.30;0.20;;;23.40;99.90;;;;;;4916738;29;20950;-62
2023/09/13 11:23:08;;;;;;;0.30;0.20;;;23.50;99.90;;;;;;4928128;29;20521;-60
2023/09/13 11:25:39;;;;;;;0.30;0.20;;;23.70;99.90;;;;;;4934820;29;20914;-61
2023/09/13 11:28:27;;;;;;;0.30;0.30;;;23.90;99.90;;;;;;4939097;29;20437;-60
2023/09/13 11:30:56;;;;;;;0.30;0.20;;;24.00;99.90;;;;;;4939217;29;20492;-61
2023/09/13 11:33:22;;;;;;;0.30;0.30;;;24.00;99.90;;;;;;4921540;29;20436;-61
2023/09/13 11:35:50;;;;;;;0.30;0.30;;;24.00;99.90;;;;;;4938447;29;20425;-61
2023/09/13 11:38:17;;;;;;;0.30;0.20;;;24.10;99.90;;;;;;4938733;29;20779;-61
2023/09/13 11:40:47;;;;;;;0.30;0.20;;;24.20;99.90;;;;;;4938663;29;20440;-61
2023/09/13 11:43:18;;;;;;;0.30;0.30;;;24.20;99.90;;;;;;4938380;29;20425;-61
2023/09/13 11:45:47;;;;;;;0.30;0.30;;;24.40;99.90;;;;;;4938192;29;20435;-60
2023/09/13 11:48:12;;;;;;;0.30;0.20;;;24.60;99.90;;;;;;4938396;29;20381;-61
2023/09/13 11:50:43;;;;;;;0.30;0.20;;;24.60;99.90;;;;;;4938735;29;20421;-61
2023/09/13 11:53:16;;;;;;;0.30;0.23;;;24.80;99.90;;;;;;4938540;29;20238;-61
2023/09/13 11:55:49;;;;;;;0.30;0.20;;;24.80;99.90;;;;;;4937896;29;20425;-65
2023/09/13 11:58:17;;;;;;;0.30;0.20;;;24.90;99.90;;;;;;4938464;29;20417;-70
2023/09/13 12:00:43;;;;;;;0.50;0.50;;;24.80;99.90;;;;;;4938809;29;20417;-66
2023/09/13 12:03:09;;;;;;;0.30;0.20;;;24.70;99.90;;;;;;4938253;29;20482;-68
2023/09/13 12:05:38;;;;;;;0.40;0.30;;;24.70;99.90;;;;;;4937738;29;20529;-68
2023/09/13 12:08:17;;;;;;;0.30;0.30;;;24.80;99.90;;;;;;4938121;29;20785;-70
2023/09/13 12:10:43;;;;;;;0.30;0.20;;;24.90;99.90;;;;;;4938261;29;20406;-64
2023/09/13 12:13:08;;;;;;;0.30;0.20;;;25.00;99.90;;;;;;4938372;29;20457;-65
2023/09/13 12:15:34;;;;;;;0.30;0.20;;;25.00;99.90;;;;;;4937822;29;20192;-64
2023/09/13 12:18:03;;;;;;;0.30;0.20;;;24.80;99.90;;;;;;4938007;29;20237;-63
2023/09/13 12:20:32;;;;;;;0.30;0.20;;;24.80;99.90;;;;;;4937612;29;20172;-67
2023/09/13 12:22:57;;;;;;;0.30;0.20;;;24.80;99.90;;;;;;4937767;29;20412;-67
2023/09/13 12:25:25;;;;;;;0.30;0.30;;;24.90;99.90;;;;;;4938108;29;20968;-69
2023/09/13 12:27:51;;;;;;;0.37;0.33;;;24.90;99.90;;;;;;4937882;29;20182;-63
2023/09/13 12:30:17;;;;;;;0.30;0.30;;;24.90;99.90;;;;;;4937889;29;20748;-68
2023/09/13 12:32:44;;;;;;;0.30;0.30;;;25.00;99.90;;;;;;4937692;29;20203;-68
2023/09/13 12:35:11;;;;;;;0.30;0.20;;;25.00;99.90;;;;;;4937182;29;20407;-64
2023/09/13 12:37:37;;;;;;;0.30;0.30;;;25.10;99.90;;;;;;4937023;29;20916;-65
2023/09/13 12:40:15;;;;;;;0.50;0.30;;;25.20;99.90;;;;;;4937681;29;20468;-71
2023/09/13 12:42:42;;;;;;;0.30;0.30;;;25.20;99.90;;;;;;4920466;29;20233;-66
2023/09/13 12:45:08;;;;;;;0.30;0.30;;;25.20;99.90;;;;;;4937112;29;20441;-66
2023/09/13 12:47:35;;;;;;;0.30;0.20;;;25.20;99.90;;;;;;4937366;29;20504;-65
2023/09/13 12:50:02;;;;;;;0.30;0.20;;;25.10;99.90;;;;;;4937640;29;20739;-67
2023/09/13 12:52:28;;;;;;;0.30;0.20;;;25.10;99.90;;;;;;4937464;29;20445;-66
2023/09/13 12:54:56;;;;;;;0.30;0.30;;;25.10;99.90;;;;;;4919019;29;20941;-67
2023/09/13 12:57:22;;;;;;;0.30;0.30;;;25.10;99.90;;;;;;4937353;29;20420;-65
2023/09/13 12:59:50;;;;;;;0.30;0.20;;;25.00;99.90;;;;;;4937306;29;20418;-67
2023/09/13 13:02:17;;;;;;;0.30;0.20;;;24.90;99.90;;;;;;4937344;29;20415;-66
2023/09/13 13:04:43;;;;;;;0.30;0.30;;;25.00;99.90;;;;;;4936926;29;20767;-65
2023/09/13 13:07:08;;;;;;;0.30;0.30;;;25.20;99.90;;;;;;4937253;29;20526;-67
2023/09/13 13:09:34;;;;;;;0.30;0.30;;;25.30;99.90;;;;;;4937176;29;20236;-65
2023/09/13 13:12:00;;;;;;;0.30;0.30;;;25.40;99.90;;;;;;4937064;29;20196;-65
2023/09/13 13:14:31;;;;;;;0.30;0.30;;;25.40;99.90;;;;;;4936695;29;20225;-62
2023/09/13 13:16:59;;;;;;;0.30;0.20;;;25.50;99.90;;;;;;4937113;29;20184;-63
2023/09/13 13:19:33;;;;;;;0.30;0.30;;;25.50;99.90;;;;;;4937178;29;20423;-64
2023/09/13 13:21:59;;;;;;;0.30;0.20;;;25.40;99.90;;;;;;4937098;29;20420;-65
2023/09/13 13:24:25;;;;;;;0.30;0.20;;;25.40;99.90;;;;;;4936678;29;20762;-67
2023/09/13 13:26:51;;;;;;;0.30;0.30;;;25.50;99.90;;;;;;4936754;29;20544;-66
2023/09/13 13:29:17;;;;;;;0.30;0.30;;;25.50;99.90;;;;;;4936882;29;20188;-66
2023/09/13 13:31:43;;;;;;;0.40;0.40;;;25.50;99.90;;;;;;4936927;29;20420;-67
2023/09/13 13:34:09;;;;;;;0.30;0.30;;;25.50;99.90;;;;;;4936450;29;20243;-66
2023/09/13 13:36:34;;;;;;;0.30;0.30;;;25.50;99.90;;;;;;4936690;29;20450;-66
2023/09/13 13:39:00;;;;;;;0.30;0.20;;;25.30;99.90;;;;;;4936765;29;20191;-65
2023/09/13 13:41:26;;;;;;;0.30;0.20;;;25.20;99.90;;;;;;4936743;29;20545;-66
2023/09/13 13:43:54;;;;;;;0.30;0.20;;;25.30;99.90;;;;;;4936439;29;20556;-67
2023/09/13 13:46:21;;;;;;;0.30;0.30;;;25.50;99.90;;;;;;4936358;29;20218;-67
2023/09/13 13:48:46;;;;;;;0.30;0.30;;;25.50;99.90;;;;;;4935499;29;20402;-66
2023/09/13 13:51:12;;;;;;;0.30;0.20;;;25.60;99.90;;;;;;4936830;29;20414;-65
2023/09/13 13:53:38;;;;;;;0.30;0.20;;;25.70;99.90;;;;;;4936414;29;20273;-67
2023/09/13 13:56:05;;;;;;;0.30;0.30;;;25.70;99.90;;;;;;4936276;29;20246;-66
2023/09/13 13:58:31;;;;;;;0.30;0.30;;;25.90;99.90;;;;;;4936433;29;20183;-67
2023/09/13 14:00:58;;;;;;;0.30;0.30;;;26.00;99.90;;;;;;4936657;29;20891;-63
2023/09/13 14:03:25;;;;;;;0.30;0.30;;;26.00;99.90;;;;;;4936390;29;20197;-67
2023/09/13 14:05:52;;;;;;;0.30;0.20;;;26.00;99.90;;;;;;4935911;29;20436;-64
2023/09/13 14:08:22;;;;;;;0.30;0.20;;;26.00;99.90;;;;;;4936323;29;20482;-65
2023/09/13 14:10:48;;;;;;;0.30;0.30;;;25.90;99.90;;;;;;4919467;29;20930;-66
2023/09/13 14:13:16;;;;;;;0.30;0.20;;;25.80;99.90;;;;;;4935583;29;20990;-63
2023/09/13 14:15:42;;;;;;;0.57;0.57;;;25.70;99.90;;;;;;4935744;29;20895;-63
2023/09/13 14:18:08;;;;;;;0.30;0.20;;;25.60;99.90;;;;;;4936295;29;20469;-65
2023/09/13 14:20:35;;;;;;;0.30;0.20;;;25.50;99.90;;;;;;4935934;29;20414;-64
2023/09/13 14:23:02;;;;;;;0.30;0.20;;;25.30;99.90;;;;;;4903291;29;20185;-64
2023/09/13 14:25:28;;;;;;;0.30;0.20;;;25.30;99.90;;;;;;4935519;29;20835;-64
2023/09/13 14:27:54;;;;;;;0.30;0.20;;;25.10;99.90;;;;;;4936191;29;20444;-67
2023/09/13 14:30:20;;;;;;;0.30;0.20;;;24.90;99.90;;;;;;4935986;29;20182;-64
2023/09/13 14:32:46;;;;;;;0.30;0.30;;;24.80;99.90;;;;;;4918707;29;20255;-64
2023/09/13 14:35:13;;;;;;;0.30;0.20;;;24.50;99.90;;;;;;4935537;29;20494;-65
2023/09/13 14:37:39;;;;;;;1.23;0.40;;;24.20;99.90;;;;;;4935605;29;20413;-63
2023/09/13 14:40:05;;;;;;;0.30;0.20;;;23.90;99.90;;;;;;4935704;29;20390;-65
2023/09/13 14:42:30;;;;;;;0.30;0.30;;;23.70;99.90;;;;;;4935684;29;20185;-66
2023/09/13 14:44:56;;;;;;;0.30;0.30;;;23.50;99.90;;;;;;4935446;29;20445;-67
2023/09/13 14:47:22;;;;;;;0.30;0.20;;;23.40;99.90;;;;;;4935954;29;20185;-65
2023/09/13 14:49:49;;;;;;;0.50;0.50;;;23.40;99.90;;;;;;4935789;29;20186;-65
2023/09/13 14:52:16;;;;;;;0.30;0.30;;;23.40;99.90;;;;;;4935861;29;20465;-67
2023/09/13 14:54:42;;;;;;;0.30;0.20;;;23.40;99.90;;;;;;4935410;29;20485;-65
2023/09/13 14:57:07;;;;;;;0.30;0.20;;;23.50;99.90;;;;;;4935655;29;20410;-67
2023/09/13 14:59:33;;;;;;;0.30;0.30;;;23.50;99.90;;;;;;4935634;29;20201;-65
2023/09/13 15:02:00;;;;;;;0.30;0.30;;;23.40;99.90;;;;;;4939136;29;20184;-67
2023/09/13 15:04:25;;;;;;;0.30;0.20;;;23.40;99.90;;;;;;4939020;29;20184;-67
2023/09/13 15:06:52;;;;;;;0.30;0.20;;;23.40;99.90;;;;;;4939141;29;20919;-65
2023/09/13 15:09:18;;;;;;;0.30;0.20;;;23.40;99.90;;;;;;4939111;29;20182;-64
2023/09/13 15:11:45;;;;;;;0.30;0.20;;;23.30;99.90;;;;;;4939318;29;20446;-67
2023/09/13 15:14:14;;;;;;;0.50;0.40;;;23.20;99.90;;;;;;4938843;29;20418;-65
2023/09/13 15:16:41;;;;;;;0.30;0.30;;;23.10;99.90;;;;;;4939198;29;20436;-67
2023/09/13 15:19:07;;;;;;;0.30;0.20;;;23.10;99.90;;;;;;4939281;29;20421;-64
2023/09/13 15:21:33;;;;;;;0.30;0.20;;;23.10;99.90;;;;;;4939285;29;20425;-67
2023/09/13 15:23:59;;;;;;;0.30;0.20;;;23.00;99.90;;;;;;4939098;29;21415;-67
2023/09/13 15:26:25;;;;;;;0.30;0.23;;;23.00;99.90;;;;;;4939206;29;20560;-65
2023/09/13 15:28:56;;;;;;;0.30;0.20;;;23.00;99.90;;;;;;4939073;29;20420;-66
2023/09/13 15:31:25;;;;;;;0.30;0.30;;;23.00;99.90;;;;;;4938948;29;20685;-66
2023/09/13 15:33:51;;;;;;;0.30;0.20;;;23.10;99.90;;;;;;4938726;29;20457;-66
2023/09/13 15:36:17;;;;;;;0.30;0.20;;;23.20;99.90;;;;;;4938553;29;20429;-66
2023/09/13 15:38:42;;;;;;;0.30;0.30;;;23.30;99.90;;;;;;4938737;29;20218;-65
2023/09/13 15:41:08;;;;;;;0.30;0.20;;;23.40;99.90;;;;;;4938920;29;20219;-66
2023/09/13 15:43:33;;;;;;;0.30;0.30;;;23.40;99.90;;;;;;4938710;29;20201;-67
2023/09/13 15:45:59;;;;;;;0.30;0.30;;;23.40;99.90;;;;;;4938304;29;20201;-65
2023/09/13 15:48:25;;;;;;;0.30;0.20;;;23.40;99.90;;;;;;4938583;29;20182;-67
2023/09/13 15:50:51;;;;;;;0.30;0.20;;;23.30;99.90;;;;;;4938582;29;20628;-66
2023/09/13 15:53:17;;;;;;;0.30;0.20;;;23.20;99.90;;;;;;4938591;29;20209;-67
2023/09/13 15:55:43;;;;;;;0.30;0.23;;;23.20;99.90;;;;;;4937870;29;20437;-65
2023/09/13 15:58:09;;;;;;;0.30;0.30;;;23.20;99.90;;;;;;4938602;29;20213;-65
2023/09/13 16:00:34;;;;;;;0.30;0.30;;;23.20;99.90;;;;;;4938593;29;20205;-67
2023/09/13 16:03:00;;;;;;;0.30;0.20;;;23.30;99.90;;;;;;4938612;29;20942;-67
2023/09/13 16:05:26;;;;;;;0.30;0.20;;;23.20;99.90;;;;;;4937793;29;20201;-66
2023/09/13 16:07:52;;;;;;;0.30;0.20;;;23.20;99.90;;;;;;4938144;29;20473;-66
2023/09/13 16:10:22;;;;;;;0.30;0.20;;;23.20;99.90;;;;;;4938193;29;20497;-66
2023/09/13 16:12:48;;;;;;;0.30;0.30;;;23.20;99.90;;;;;;4937042;29;20211;-66
2023/09/13 16:15:14;;;;;;;0.30;0.20;;;23.20;99.90;;;;;;4937842;29;20767;-66
2023/09/13 16:17:40;;;;;;;0.30;0.30;;;23.10;99.90;;;;;;4937232;29;20405;-66
2023/09/13 16:20:06;;;;;;;0.30;0.30;;;23.10;99.90;;;;;;4937611;29;20428;-66
2023/09/13 16:22:32;;;;;;;0.30;0.20;;;23.00;99.90;;;;;;4937441;29;20577;-64
2023/09/13 16:24:59;;;;;;;0.30;0.20;;;22.90;99.90;;;;;;4937334;29;20444;-66
2023/09/13 16:27:24;;;;;;;0.30;0.20;;;22.90;99.90;;;;;;4937984;29;20215;-64
2023/09/13 16:29:50;;;;;;;0.30;0.30;;;22.80;99.90;;;;;;4937708;29;20445;-65
2023/09/13 16:32:17;;;;;;;0.30;0.30;;;22.80;99.90;;;;;;4937591;29;20201;-64
2023/09/13 16:34:43;;;;;;;0.30;0.30;;;22.70;99.90;;;;;;4937177;29;20207;-67
2023/09/13 16:37:08;;;;;;;0.30;0.30;;;22.70;99.90;;;;;;4937488;29;20385;-66
2023/09/13 16:39:34;;;;;;;1.03;0.40;;;22.70;99.90;;;;;;4937006;29;20584;-65
2023/09/13 16:41:59;;;;;;;0.50;0.40;;;22.80;99.90;;;;;;4936470;29;20233;-64
2023/09/13 16:44:25;;;;;;;0.30;0.20;;;22.70;99.90;;;;;;4936887;29;20196;-67
2023/09/13 16:46:50;;;;;;;0.30;0.20;;;22.70;99.90;;;;;;4937374;29;20184;-66
2023/09/13 16:49:16;;;;;;;0.30;0.20;;;22.70;99.90;;;;;;4937201;29;20192;-65
2023/09/13 16:51:42;;;;;;;0.30;0.20;;;22.70;99.90;;;;;;4936493;29;20190;-67
2023/09/13 16:54:09;;;;;;;0.30;0.20;;;22.70;99.90;;;;;;4924618;29;20237;-67